Time;durP1;ratioP1;P1;durP2;ratioP2;P2;SDS_P1;SDS_P2;PMS_P1;PMS_P2;Temp;Humidity;BMP_temperature;BMP_pressure;BME280_temperature;BME280_humidity;BME280_pressure;Samples;Min_cycle;Max_cycle;Signal;HPM_P1;HPM_P2
2023/01/14 00:01:23;;;;;;;4.63;1.15;;;;;;;6.89;95.45;100397.53;4963563;28;20041;-78
2023/01/14 00:03:49;;;;;;;1.77;0.35;;;;;;;6.86;94.92;100394.84;4962712;28;20051;-78
2023/01/14 00:06:17;;;;;;;2.45;0.40;;;;;;;6.82;95.07;100390.47;4960606;28;20118;-78
2023/01/14 00:08:43;;;;;;;2.40;0.77;;;;;;;6.73;95.33;100395.63;4963595;28;20073;-78
2023/01/14 00:11:11;;;;;;;1.92;0.45;;;;;;;6.68;96.17;100390.38;4960459;28;20054;-78
2023/01/14 00:13:38;;;;;;;4.03;1.50;;;;;;;6.71;96.13;100395.63;4961438;28;20030;-78
2023/01/14 00:16:05;;;;;;;2.40;0.60;;;;;;;6.79;96.12;100400.94;4961797;28;20031;-78
2023/01/14 00:18:32;;;;;;;3.63;0.90;;;;;;;6.86;96.11;100396.59;4975022;28;20414;-78
2023/01/14 00:21:10;;;;;;;3.45;0.70;;;;;;;6.95;95.58;100400.16;4962893;28;20031;-78
2023/01/14 00:23:37;;;;;;;3.78;1.02;;;;;;;7.01;94.91;100407.19;4958642;28;20035;-78
2023/01/14 00:26:11;;;;;;;2.13;0.70;;;;;;;7.08;94.60;100410.75;4960932;28;20129;-78
2023/01/14 00:28:37;;;;;;;3.47;0.68;;;;;;;7.14;94.32;100416.91;4954407;28;20043;-77
2023/01/14 00:31:09;;;;;;;4.32;0.70;;;;;;;7.23;94.51;100410.81;4964588;28;20062;-77
2023/01/14 00:33:35;;;;;;;2.25;0.45;;;;;;;7.23;93.88;100416.06;4951416;28;20039;-77
2023/01/14 00:36:01;;;;;;;3.13;0.60;;;;;;;7.27;93.98;100411.72;4963179;28;20038;-77
2023/01/14 00:38:27;;;;;;;2.53;0.40;;;;;;;7.32;93.27;100416.13;4978621;28;20086;-77
2023/01/14 00:41:01;;;;;;;3.42;0.57;;;;;;;7.32;93.25;100418.75;4964349;28;20486;-77
2023/01/14 00:43:26;;;;;;;1.70;0.47;;;;;;;7.33;93.37;100417.00;4967577;28;20073;-77
2023/01/14 00:45:52;;;;;;;4.07;0.60;;;;;;;7.29;93.68;100403.00;4963531;28;20078;-77
2023/01/14 00:48:17;;;;;;;2.83;0.65;;;;;;;7.29;93.26;100408.25;4966930;28;20030;-77
2023/01/14 00:50:42;;;;;;;1.92;0.50;;;;;;;7.28;93.20;100413.47;4963790;28;20050;-77
2023/01/14 00:53:08;;;;;;;2.70;0.40;;;;;;;7.24;93.96;100418.72;4966122;28;20031;-77
2023/01/14 00:55:34;;;;;;;2.95;0.40;;;;;;;7.24;93.51;100413.47;4964468;28;20039;-77
2023/01/14 00:58:00;;;;;;;5.38;1.25;;;;;;;7.21;93.39;100416.06;4979710;28;20039;-77
2023/01/14 01:00:25;;;;;;;2.03;0.40;;;;;;;7.19;93.41;100430.06;4981015;28;20049;-77
2023/01/14 01:02:50;;;;;;;2.25;0.60;;;;;;;7.22;92.92;100428.31;4963171;28;20038;-77
2023/01/14 01:05:16;;;;;;;4.90;0.70;;;;;;;7.28;92.53;100422.22;4981344;28;20030;-77
2023/01/14 01:07:41;;;;;;;3.53;0.47;;;;;;;7.33;91.82;100427.50;4965539;28;20038;-77
2023/01/14 01:10:08;;;;;;;2.38;0.30;;;;;;;7.36;90.84;100428.41;4964301;28;20039;-77
2023/01/14 01:12:33;;;;;;;3.88;0.50;;;;;;;7.41;91.45;100421.44;4964561;28;20039;-77
2023/01/14 01:14:59;;;;;;;4.50;1.52;;;;;;;7.45;90.93;100422.31;4949524;28;20034;-77
2023/01/14 01:17:24;;;;;;;2.95;0.65;;;;;;;7.48;90.39;100427.59;4964287;28;20456;-77
2023/01/14 01:19:50;;;;;;;4.30;0.60;;;;;;;7.49;90.55;100428.47;4996407;23;20599;-75
2023/01/14 01:22:16;;;;;;;1.63;0.28;;;;;;;7.49;90.51;100429.34;4993915;28;20045;-74
2023/01/14 01:24:43;;;;;;;3.83;0.68;;;;;;;7.51;89.93;100431.97;5008946;28;20492;-75
2023/01/14 01:27:08;;;;;;;3.05;0.60;;;;;;;7.58;88.58;100431.16;4993185;28;20045;-74
2023/01/14 01:29:33;;;;;;;6.38;0.60;;;;;;;7.54;89.19;100435.47;4993706;28;20405;-75
2023/01/14 01:31:59;;;;;;;2.55;0.47;;;;;;;7.58;89.20;100444.28;4992381;28;20774;-75
2023/01/14 01:34:24;;;;;;;3.47;0.60;;;;;;;7.62;88.50;100446.03;4992357;28;20048;-75
2023/01/14 01:36:49;;;;;;;3.63;1.05;;;;;;;7.63;88.78;100442.56;4992907;28;20544;-74
2023/01/14 01:39:15;;;;;;;1.75;0.60;;;;;;;7.60;88.08;100446.03;4993564;28;20092;-74
2023/01/14 01:41:41;;;;;;;1.88;0.63;;;;;;;7.67;88.33;100439.03;4992948;28;20106;-75
2023/01/14 01:44:13;;;;;;;1.15;0.35;;;;;;;7.59;86.62;100431.13;5001100;28;20148;-76
2023/01/14 01:46:40;;;;;;;2.53;0.40;;;;;;;7.65;87.09;100440.78;4992646;28;20033;-74
2023/01/14 01:49:31;;;;;;;2.78;0.40;;;;;;;7.60;87.95;100437.28;4993329;28;20026;-75
2023/01/14 01:52:08;;;;;;;2.90;0.80;;;;;;;7.54;87.39;100432.00;4992049;28;20130;-75
2023/01/14 01:54:40;;;;;;;3.08;0.50;;;;;;;7.41;88.01;100442.44;4993431;28;20035;-74
2023/01/14 01:57:08;;;;;;;;;;;;;;;7.20;89.57;100445.84;5003090;28;20034;-75
2023/01/14 01:59:39;;;;;;;4.25;0.93;;;;;;;7.13;90.04;100451.91;5000519;28;19953;-74
2023/01/14 02:02:07;;;;;;;2.60;0.55;;;;;;;7.16;90.19;100457.16;4991963;28;20034;-74
2023/01/14 02:04:33;;;;;;;2.25;0.50;;;;;;;7.20;89.88;100451.09;4988206;28;20030;-74
2023/01/14 02:06:58;;;;;;;3.10;0.45;;;;;;;7.29;89.50;100468.63;4992327;28;20516;-74
2023/01/14 02:09:26;;;;;;;6.57;0.70;;;;;;;7.34;89.08;100466.91;4999962;28;20034;-74
2023/01/14 02:12:05;;;;;;;6.53;1.13;;;;;;;7.38;88.61;100468.66;4991682;28;20034;-75
2023/01/14 02:14:50;;;;;;;3.40;0.98;;;;;;;7.49;88.72;100475.72;4988385;28;20555;-74
2023/01/14 02:17:29;;;;;;;5.72;0.65;;;;;;;7.47;88.30;100473.97;4989966;28;20065;-75
2023/01/14 02:20:32;;;;;;;1.75;0.47;;;;;;;7.57;88.28;100479.28;4991175;28;20036;-74
2023/01/14 02:23:39;;;;;;;7.47;0.82;;;;;;;7.62;88.21;100482.78;4988378;28;20069;-75
2023/01/14 02:26:18;;;;;;;2.95;0.57;;;;;;;7.52;88.12;100486.25;4990306;28;20065;-74
2023/01/14 02:29:17;;;;;;;4.40;1.13;;;;;;;7.44;88.81;100494.06;4989207;28;20038;-74
2023/01/14 02:31:48;;;;;;;3.40;0.70;;;;;;;7.35;88.50;100494.03;4990596;28;20030;-74
2023/01/14 02:34:32;;;;;;;3.10;0.52;;;;;;;7.36;88.44;100504.56;4988071;28;20038;-74
2023/01/14 02:37:07;;;;;;;4.65;0.68;;;;;;;7.37;87.82;100493.19;4990572;28;20445;-74
2023/01/14 02:39:56;;;;;;;2.47;0.45;;;;;;;7.37;88.25;100503.69;4983716;28;20129;-74
2023/01/14 02:45:12;;;;;;;1.48;0.30;;;;;;;7.41;87.54;100504.56;4988670;28;20030;-74
2023/01/14 02:47:41;;;;;;;4.45;0.95;;;;;;;7.43;87.32;100500.22;4990438;28;20037;-74
2023/01/14 02:50:13;;;;;;;3.55;1.55;;;;;;;7.47;87.22;100510.75;4990686;28;20374;-74
2023/01/14 02:52:38;;;;;;;5.63;0.80;;;;;;;7.49;87.45;100515.13;4990336;28;20034;-75
2023/01/14 02:55:31;;;;;;;2.20;0.60;;;;;;;7.54;87.55;100516.03;4991973;28;20026;-74
2023/01/14 02:58:14;;;;;;;4.78;0.77;;;;;;;7.55;87.43;100520.44;5004793;28;20046;-74
2023/01/14 03:00:59;;;;;;;4.88;0.70;;;;;;;7.54;87.80;100523.91;4988314;28;20152;-74
2023/01/14 03:03:45;;;;;;;5.22;0.80;;;;;;;7.54;87.48;100513.41;4989356;28;20038;-75
2023/01/14 03:06:27;;;;;;;2.75;0.93;;;;;;;7.45;88.26;100516.84;4988163;28;20038;-74
2023/01/14 03:09:03;;;;;;;4.40;0.45;;;;;;;7.33;88.79;100517.63;4990771;28;20806;-75
2023/01/14 03:11:47;;;;;;;3.40;0.60;;;;;;;7.29;89.16;100521.13;4987969;28;20064;-75
2023/01/14 03:14:22;;;;;;;2.25;0.38;;;;;;;7.25;89.37;100532.47;4998598;28;20405;-75
2023/01/14 03:16:56;;;;;;;2.60;0.73;;;;;;;7.20;90.02;100526.28;4991281;28;20041;-75
2023/01/14 03:19:28;;;;;;;5.28;0.93;;;;;;;7.18;89.30;100539.44;4986746;28;20042;-74
2023/01/14 03:21:57;;;;;;;5.35;0.70;;;;;;;7.21;89.91;100533.31;4991891;28;20026;-74
2023/01/14 03:24:33;;;;;;;3.33;0.57;;;;;;;7.25;90.04;100535.09;4989605;28;20496;-74
2023/01/14 03:27:06;;;;;;;8.57;1.10;;;;;;;7.23;90.16;100542.06;4987493;28;20081;-75
2023/01/14 03:29:44;;;;;;;4.72;1.48;;;;;;;7.25;90.52;100530.72;4990282;28;20030;-75
2023/01/14 03:32:23;;;;;;;3.47;0.65;;;;;;;7.26;90.76;100542.13;4988214;28;20414;-74
2023/01/14 03:35:09;;;;;;;4.53;0.68;;;;;;;7.29;90.94;100557.88;4990220;28;20042;-75
2023/01/14 03:37:43;;;;;;;6.03;0.50;;;;;;;7.30;91.16;100549.13;4989780;28;20042;-74
2023/01/14 03:40:12;;;;;;;2.70;0.50;;;;;;;7.32;90.80;100542.16;5003898;28;20038;-75
2023/01/14 03:42:44;;;;;;;4.20;0.77;;;;;;;7.29;91.98;100547.38;4991775;28;20034;-75
2023/01/14 03:45:13;;;;;;;4.78;0.70;;;;;;;7.29;92.59;100547.38;4991714;28;20034;-74
2023/01/14 03:47:40;;;;;;;3.83;0.60;;;;;;;7.29;92.14;100551.75;4991105;28;20030;-75
2023/01/14 03:50:15;;;;;;;3.58;0.68;;;;;;;7.31;91.93;100556.16;4989892;28;20097;-75
2023/01/14 03:52:56;;;;;;;4.60;0.93;;;;;;;7.29;91.66;100549.13;4991598;28;20046;-75
2023/01/14 03:55:34;;;;;;;1.55;0.32;;;;;;;7.22;91.92;100553.44;4991241;28;20563;-75
2023/01/14 03:58:08;;;;;;;3.72;0.55;;;;;;;7.14;92.34;100547.25;4988607;28;20034;-74
2023/01/14 04:00:40;;;;;;;4.05;0.90;;;;;;;7.11;92.48;100542.00;4991358;28;20090;-74
2023/01/14 04:03:12;;;;;;;6.65;0.98;;;;;;;7.13;92.34;100551.63;4988123;28;20050;-74
2023/01/14 04:05:38;;;;;;;6.07;1.45;;;;;;;7.10;92.85;100555.97;4992291;28;20038;-74
2023/01/14 04:08:05;;;;;;;5.78;0.90;;;;;;;7.07;92.43;100556.81;4995256;28;20512;-74
2023/01/14 04:10:30;;;;;;;7.93;0.82;;;;;;;6.99;92.69;100564.63;4995203;28;20113;-75
2023/01/14 04:15:40;;;;;;;5.38;0.80;;;;;;;6.70;94.13;100559.09;4994590;28;20038;-75
2023/01/14 04:18:05;;;;;;;5.60;0.70;;;;;;;6.52;95.02;100557.19;4994938;28;20113;-75
2023/01/14 04:20:33;;;;;;;4.43;0.65;;;;;;;6.42;95.44;100570.16;4994690;28;20073;-74
2023/01/14 04:22:59;;;;;;;5.22;0.90;;;;;;;6.30;96.19;100563.03;4995039;28;20034;-74
2023/01/14 04:25:24;;;;;;;6.82;1.02;;;;;;;6.29;96.05;100571.78;4994581;28;20105;-75
2023/01/14 04:27:49;;;;;;;4.30;0.80;;;;;;;6.25;96.13;100568.22;4994665;28;20049;-75
2023/01/14 04:30:15;;;;;;;4.28;0.63;;;;;;;6.21;96.25;100565.53;4994811;28;20031;-75
2023/01/14 04:32:41;;;;;;;3.22;0.90;;;;;;;6.14;96.50;100565.47;4994824;28;20045;-75
2023/01/14 04:35:06;;;;;;;3.28;0.68;;;;;;;6.16;96.29;100568.13;4994406;28;20069;-74
2023/01/14 04:37:32;;;;;;;2.65;0.52;;;;;;;6.17;96.79;100566.38;4989036;28;20042;-74
2023/01/14 04:39:57;;;;;;;4.55;0.60;;;;;;;6.22;95.73;100564.69;4994259;28;20070;-75
2023/01/14 04:42:29;;;;;;;4.97;1.33;;;;;;;6.28;95.93;100568.25;4994733;28;20041;-74
2023/01/14 04:44:56;;;;;;;6.38;1.10;;;;;;;6.39;96.69;100573.63;4994191;28;20038;-74
2023/01/14 04:47:22;;;;;;;9.63;1.35;;;;;;;6.47;96.50;100573.72;4993839;28;20038;-74
2023/01/14 04:49:48;;;;;;;7.05;2.15;;;;;;;6.57;96.01;100583.44;4993858;28;20030;-74
2023/01/14 04:52:13;;;;;;;4.68;0.77;;;;;;;6.64;95.89;100581.78;4994642;28;20047;-74
2023/01/14 04:54:38;;;;;;;3.40;0.57;;;;;;;6.68;95.80;100583.56;4994643;28;20046;-74
2023/01/14 04:57:04;;;;;;;4.18;0.68;;;;;;;6.78;95.48;100580.16;4993861;28;20413;-75
2023/01/14 04:59:30;;;;;;;4.10;0.80;;;;;;;6.77;95.47;100583.66;4994052;28;20405;-74
2023/01/14 05:01:56;;;;;;;6.47;0.88;;;;;;;6.82;95.24;100579.34;4994293;28;20035;-74
2023/01/14 05:04:21;;;;;;;5.07;1.02;;;;;;;6.89;93.74;100583.78;4994096;28;20097;-75
2023/01/14 05:06:46;;;;;;;2.70;0.52;;;;;;;6.96;92.98;100593.47;5001939;28;20038;-75
2023/01/14 05:09:12;;;;;;;4.22;0.60;;;;;;;7.10;92.60;100592.69;5002589;28;20061;-75
2023/01/14 05:11:37;;;;;;;3.10;0.35;;;;;;;7.12;91.11;100597.09;5004000;28;20038;-75
2023/01/14 05:14:02;;;;;;;3.08;0.60;;;;;;;7.17;90.72;100589.28;5005139;28;20079;-74
2023/01/14 05:16:28;;;;;;;2.88;0.60;;;;;;;7.22;90.83;100587.56;5001988;28;20041;-74
2023/01/14 05:18:54;;;;;;;1.33;0.40;;;;;;;7.25;89.76;100593.72;5002262;28;20034;-75
2023/01/14 05:21:19;;;;;;;3.63;0.70;;;;;;;7.33;89.39;100590.28;5003087;28;20034;-75
2023/01/14 05:23:45;;;;;;;3.13;0.60;;;;;;;7.33;89.33;100591.16;5002261;28;20034;-74
2023/01/14 05:26:11;;;;;;;2.05;0.55;;;;;;;7.35;88.80;100606.94;5002495;28;20110;-75
2023/01/14 05:28:37;;;;;;;2.17;0.40;;;;;;;7.35;88.91;100610.44;5004048;28;20409;-74
2023/01/14 05:31:03;;;;;;;6.05;1.40;;;;;;;7.37;87.80;100603.44;4996985;28;20030;-74
2023/01/14 05:33:29;;;;;;;5.30;1.80;;;;;;;7.42;87.17;100609.63;4991971;28;20493;-75
2023/01/14 05:35:59;;;;;;;4.68;1.15;;;;;;;7.48;86.90;100608.78;4992953;28;20076;-75
2023/01/14 05:38:25;;;;;;;5.47;0.93;;;;;;;7.49;87.25;100601.78;4993547;28;20038;-75
2023/01/14 05:40:51;;;;;;;8.15;0.70;;;;;;;7.54;87.21;100607.94;4993403;28;20046;-76
2023/01/14 05:46:08;;;;;;;3.60;0.63;;;;;;;7.54;86.98;100616.69;4992921;28;20050;-75
2023/01/14 05:48:33;;;;;;;4.22;0.73;;;;;;;7.51;86.90;100611.44;4990668;28;20496;-75
2023/01/14 05:51:00;;;;;;;8.52;0.85;;;;;;;7.51;86.84;100610.56;4991288;28;20038;-75
2023/01/14 05:53:29;;;;;;;6.93;0.80;;;;;;;7.50;87.08;100609.69;4988835;28;20026;-75
2023/01/14 05:55:56;;;;;;;5.57;0.77;;;;;;;7.51;87.81;100610.56;4991927;28;20042;-75
2023/01/14 05:58:22;;;;;;;8.48;1.20;;;;;;;7.51;87.46;100616.69;4990682;28;20034;-75
2023/01/14 06:06:32;;;;;;;4.03;0.40;;;;;;;7.53;88.16;100619.34;4991970;28;20497;-75
2023/01/14 06:09:00;;;;;;;3.70;1.00;;;;;;;7.43;87.60;100621.00;4992966;28;20034;-75
2023/01/14 06:11:28;;;;;;;8.32;1.60;;;;;;;7.45;87.64;100622.78;4992009;28;20041;-76
2023/01/14 06:13:56;;;;;;;9.20;1.27;;;;;;;7.47;87.88;100633.31;4990858;28;20393;-75
2023/01/14 06:16:23;;;;;;;5.97;0.90;;;;;;;7.47;88.01;100633.31;4991428;28;20444;-75
2023/01/14 06:18:49;;;;;;;5.15;1.00;;;;;;;7.42;87.62;100633.25;4990200;28;20413;-76
2023/01/14 06:21:18;;;;;;;7.13;1.48;;;;;;;7.44;88.69;100628.00;4991251;28;20034;-75
2023/01/14 06:23:44;;;;;;;3.47;0.77;;;;;;;7.47;88.14;100636.78;4989044;28;20049;-75
2023/01/14 06:26:12;;;;;;;4.95;0.93;;;;;;;7.50;88.03;100632.44;4992060;28;20481;-76
2023/01/14 06:28:38;;;;;;;4.90;0.98;;;;;;;7.42;87.67;100635.88;4992362;28;20060;-75
2023/01/14 06:31:17;;;;;;;7.28;1.73;;;;;;;7.38;88.47;100631.47;4992276;28;20045;-76
2023/01/14 06:33:43;;;;;;;6.68;1.35;;;;;;;7.35;88.39;100630.56;4989720;28;20038;-75
2023/01/14 06:36:10;;;;;;;6.25;1.00;;;;;;;7.36;88.84;100638.47;4990504;28;20069;-75
2023/01/14 06:38:36;;;;;;;6.05;1.25;;;;;;;7.35;88.66;100641.06;4992485;28;20049;-75
2023/01/14 06:41:03;;;;;;;7.18;1.40;;;;;;;7.36;88.72;100637.56;4992283;28;20046;-76
2023/01/14 06:43:29;;;;;;;4.97;1.00;;;;;;;7.39;88.37;100643.75;4990815;28;20065;-76
2023/01/14 06:45:55;;;;;;;6.28;0.90;;;;;;;7.36;88.63;100643.72;4991681;28;20126;-76
2023/01/14 06:48:21;;;;;;;5.18;1.08;;;;;;;7.30;88.12;100642.78;4992263;28;20042;-75
2023/01/14 06:50:47;;;;;;;3.60;0.50;;;;;;;7.27;87.97;100638.38;4992000;28;20041;-75
2023/01/14 06:53:12;;;;;;;4.60;0.70;;;;;;;7.30;87.38;100637.50;4992179;28;20572;-75
2023/01/14 06:55:37;;;;;;;6.50;0.93;;;;;;;7.28;88.55;100629.63;4991550;28;20424;-75
2023/01/14 06:58:03;;;;;;;6.00;0.80;;;;;;;7.28;87.55;100629.63;4992218;28;20548;-75
2023/01/14 07:00:28;;;;;;;4.63;1.00;;;;;;;7.25;87.66;100619.97;4991904;28;20405;-75
2023/01/14 07:02:54;;;;;;;5.28;0.75;;;;;;;7.16;87.93;100621.66;4992023;28;20054;-75
2023/01/14 07:05:20;;;;;;;4.18;0.80;;;;;;;7.10;88.15;100626.81;4991498;28;20046;-75
2023/01/14 07:07:46;;;;;;;6.05;0.88;;;;;;;7.07;87.96;100624.19;4991845;28;20747;-75
2023/01/14 07:10:11;;;;;;;6.88;1.38;;;;;;;7.06;87.88;100632.91;4991878;28;20034;-75
2023/01/14 07:12:36;;;;;;;6.88;1.08;;;;;;;7.05;87.92;100629.44;4991823;28;20080;-75
2023/01/14 07:15:02;;;;;;;3.33;0.80;;;;;;;6.94;87.86;100634.56;4991465;28;20111;-76
2023/01/14 07:17:28;;;;;;;4.43;0.98;;;;;;;6.87;88.59;100632.75;4990325;28;20085;-76
2023/01/14 07:19:53;;;;;;;5.88;0.47;;;;;;;6.81;89.28;100637.91;5005387;23;20042;-77
2023/01/14 07:22:18;;;;;;;6.47;0.60;;;;;;;6.76;89.39;100650.13;4985367;28;20043;-77
2023/01/14 07:24:44;;;;;;;5.28;1.27;;;;;;;6.69;89.65;100643.03;4991249;28;20404;-77
2023/01/14 07:27:09;;;;;;;9.63;0.82;;;;;;;6.68;89.81;100647.41;4981659;28;20035;-76
2023/01/14 07:29:34;;;;;;;2.00;0.73;;;;;;;6.65;89.87;100636.84;4987338;28;20035;-79
2023/01/14 07:32:00;;;;;;;3.40;0.60;;;;;;;6.61;90.00;100642.06;4989287;28;20041;-78
2023/01/14 07:34:25;;;;;;;6.28;1.15;;;;;;;6.54;90.12;100635.84;4982852;28;20030;-78
2023/01/14 07:36:51;;;;;;;5.40;0.50;;;;;;;6.41;90.46;100634.81;4987558;28;20073;-78
2023/01/14 07:39:16;;;;;;;3.88;0.52;;;;;;;6.28;90.47;100635.53;4985959;28;20556;-77
2023/01/14 07:41:41;;;;;;;3.10;0.30;;;;;;;6.17;91.40;100637.13;4990189;28;20432;-77
2023/01/14 07:44:07;;;;;;;2.80;0.40;;;;;;;6.06;92.03;100640.50;4987302;28;20043;-78
2023/01/14 07:46:33;;;;;;;2.92;0.30;;;;;;;5.99;92.09;100643.88;4980347;28;20125;-77
2023/01/14 07:48:59;;;;;;;2.95;0.65;;;;;;;5.92;93.30;100640.28;4987769;28;20046;-77
2023/01/14 07:51:24;;;;;;;4.78;0.85;;;;;;;5.91;93.25;100632.38;4984199;28;20121;-77
2023/01/14 07:53:50;;;;;;;2.40;0.95;;;;;;;5.88;93.52;100638.44;4990934;28;20038;-77
2023/01/14 07:56:16;;;;;;;4.22;0.40;;;;;;;5.84;93.70;100636.66;4981529;28;20412;-78
2023/01/14 07:58:42;;;;;;;2.10;0.60;;;;;;;5.80;93.71;100637.47;4988510;28;20125;-77
2023/01/14 08:01:09;;;;;;;8.15;0.68;;;;;;;5.84;93.60;100644.53;4988191;28;20125;-78
2023/01/14 08:03:36;;;;;;;1.60;0.52;;;;;;;5.85;93.57;100643.66;4983576;28;20366;-77
2023/01/14 08:06:04;;;;;;;4.63;1.05;;;;;;;5.84;93.52;100635.75;4983183;28;20105;-77
2023/01/14 08:08:29;;;;;;;1.70;0.22;;;;;;;5.80;94.13;100636.59;4989178;28;20030;-77
2023/01/14 08:10:58;;;;;;;4.57;0.70;;;;;;;5.83;94.13;100636.63;4984769;28;20471;-76
2023/01/14 08:13:23;;;;;;;4.75;1.08;;;;;;;5.84;93.89;100628.81;4987342;28;20569;-76
2023/01/14 08:15:55;;;;;;;3.55;0.70;;;;;;;5.81;94.34;100620.88;4986912;28;20069;-77
2023/01/14 08:18:21;;;;;;;;;;;;;;;5.80;94.20;100615.63;4987828;28;20501;-77
2023/01/14 08:20:46;;;;;;;5.85;0.50;;;;;;;5.85;93.68;100612.22;4984917;28;20008;-76
2023/01/14 08:23:11;;;;;;;3.42;0.55;;;;;;;5.81;93.85;100606.91;4985254;28;20034;-77
2023/01/14 08:25:36;;;;;;;2.58;0.80;;;;;;;5.86;93.37;100620.94;4986650;28;20062;-77
2023/01/14 08:28:02;;;;;;;1.75;0.30;;;;;;;5.95;93.27;100621.13;4988865;28;20034;-78
2023/01/14 08:30:28;;;;;;;3.95;0.55;;;;;;;6.01;92.39;100615.97;4995216;28;20509;-78
2023/01/14 08:32:53;;;;;;;5.30;0.93;;;;;;;6.09;92.46;100613.44;4991667;28;20510;-78
2023/01/14 08:35:19;;;;;;;4.95;0.95;;;;;;;6.14;92.16;100609.16;4987420;28;20096;-78
2023/01/14 08:37:44;;;;;;;3.88;0.70;;;;;;;6.18;91.81;100608.31;4992548;28;20038;-79
2023/01/14 08:40:10;;;;;;;2.03;0.28;;;;;;;6.22;91.09;100609.25;4993908;28;20116;-78
2023/01/14 08:42:35;;;;;;;2.05;0.88;;;;;;;6.28;90.52;100610.19;4990641;28;20034;-77
2023/01/14 08:45:00;;;;;;;2.38;0.43;;;;;;;6.38;90.12;100603.31;4991102;28;20030;-78
2023/01/14 08:47:28;;;;;;;3.92;0.77;;;;;;;6.43;89.42;100587.66;4991837;28;20041;-78
2023/01/14 08:49:55;;;;;;;5.57;0.90;;;;;;;6.52;88.93;100595.63;4997229;28;20045;-79
2023/01/14 08:52:20;;;;;;;4.18;0.70;;;;;;;6.54;88.76;100604.38;4990282;28;20058;-78
2023/01/14 08:54:46;;;;;;;4.20;0.82;;;;;;;6.63;88.20;100607.13;4996952;28;20042;-78
2023/01/14 08:57:11;;;;;;;5.90;0.55;;;;;;;6.69;87.97;100599.31;5000614;28;20069;-79
2023/01/14 08:59:38;;;;;;;4.13;0.63;;;;;;;6.76;87.59;100603.78;4998932;28;20110;-78
2023/01/14 09:02:04;;;;;;;4.22;0.70;;;;;;;6.76;86.75;100609.03;5001161;28;20030;-78
2023/01/14 09:04:29;;;;;;;3.80;1.17;;;;;;;6.83;86.64;100609.94;4998805;28;20071;-78
2023/01/14 09:18:00;;;;;;;17.85;1.67;;;;;;;7.29;85.49;100622.66;4991718;28;20462;-78
2023/01/14 09:20:30;;;;;;;5.47;0.60;;;;;;;7.33;84.71;100621.78;4986803;28;20046;-77
2023/01/14 09:22:56;;;;;;;4.80;0.88;;;;;;;7.36;85.16;100614.84;4986482;28;20065;-78
2023/01/14 09:25:22;;;;;;;6.07;1.10;;;;;;;7.33;84.80;100616.53;4989081;28;20042;-79
2023/01/14 09:27:47;;;;;;;5.50;0.80;;;;;;;7.38;84.82;100614.81;4984801;28;20402;-78
2023/01/14 09:30:13;;;;;;;3.70;1.20;;;;;;;7.47;85.32;100621.03;4988309;28;20097;-78
2023/01/14 09:32:39;;;;;;;4.65;1.10;;;;;;;7.45;84.11;100617.53;5004413;28;20042;-79
2023/01/14 09:35:05;;;;;;;6.38;1.25;;;;;;;7.55;84.53;100617.59;5004135;28;20105;-79
2023/01/14 09:37:33;;;;;;;7.97;1.50;;;;;;;7.59;84.30;100612.38;4988821;28;20046;-79
2023/01/14 09:39:59;;;;;;;2.60;0.70;;;;;;;7.63;83.97;100618.53;5003721;28;20042;-79
2023/01/14 09:42:36;;;;;;;4.57;0.45;;;;;;;7.67;84.25;100620.28;4994767;28;20034;-78
2023/01/14 09:45:22;;;;;;;4.70;1.33;;;;;;;7.69;84.73;100619.44;4991701;28;20125;-79
2023/01/14 09:47:48;;;;;;;9.30;1.20;;;;;;;7.65;84.32;100608.91;4989380;28;20064;-80
2023/01/14 09:50:20;;;;;;;4.25;1.20;;;;;;;7.65;84.31;100604.53;4990454;28;20042;-79
2023/01/14 09:53:05;;;;;;;5.88;1.30;;;;;;;7.64;83.29;100594.88;4984108;28;20097;-78
2023/01/14 09:55:51;;;;;;;46.83;42.75;;;;;;;7.66;84.14;100593.16;4983186;28;20038;-78
2023/01/14 09:58:24;;;;;;;79.88;75.07;;;;;;;7.67;84.02;100575.63;4983004;28;20047;-78
2023/01/14 10:01:08;;;;;;;14.15;13.40;;;;;;;7.67;83.26;100576.50;4982702;28;20033;-78
2023/01/14 10:03:41;;;;;;;24.33;23.02;;;;;;;7.81;83.49;100573.13;4986016;28;20518;-78
2023/01/14 10:06:14;;;;;;;21.88;20.67;;;;;;;7.82;82.48;100575.75;4988314;28;20065;-78
2023/01/14 10:08:45;;;;;;;16.17;15.18;;;;;;;7.97;81.45;100577.59;4984807;28;20552;-78
2023/01/14 10:11:12;;;;;;;56.03;53.25;;;;;;;8.02;81.50;100570.59;4971504;28;20046;-78
2023/01/14 10:13:53;;;;;;;31.83;30.25;;;;;;;8.07;81.25;100557.50;4987537;28;20034;-78
2023/01/14 10:16:34;;;;;;;13.15;12.32;;;;;;;8.14;80.93;100564.50;4985288;28;20058;-79
2023/01/14 10:19:03;;;;;;;54.35;51.60;;;;;;;8.08;80.73;100553.97;4983727;28;20030;-78
2023/01/14 10:21:59;;;;;;;26.73;25.40;;;;;;;8.05;80.14;100551.34;4988335;28;20041;-79
2023/01/14 10:24:25;;;;;;;14.00;13.20;;;;;;;7.98;81.57;100553.03;4986063;28;20042;-79
2023/01/14 10:26:51;;;;;;;10.50;9.88;;;;;;;7.93;81.74;100549.50;4987986;28;20043;-78
2023/01/14 10:29:21;;;;;;;21.63;20.15;;;;;;;8.01;81.59;100542.53;4987152;28;20049;-77
2023/01/14 10:31:59;;;;;;;17.75;16.75;;;;;;;8.13;80.48;100539.09;4988665;28;20501;-78
2023/01/14 10:34:41;;;;;;;22.75;21.65;;;;;;;8.23;80.55;100525.13;4983412;28;20058;-79
2023/01/14 10:37:08;;;;;;;37.38;35.63;;;;;;;8.30;79.88;100515.47;4984835;28;20042;-79
2023/01/14 10:39:33;;;;;;;35.85;34.08;;;;;;;8.35;79.77;100513.75;4989747;28;20034;-78
2023/01/14 10:42:03;;;;;;;39.30;37.35;;;;;;;8.46;79.58;100508.53;4987511;28;20037;-78
2023/01/14 10:44:33;;;;;;;39.13;37.22;;;;;;;8.54;79.98;100506.81;4989048;28;20073;-78
2023/01/14 10:47:06;;;;;;;37.78;36.00;;;;;;;8.56;78.22;100495.41;4992040;28;20038;-78
2023/01/14 10:49:54;;;;;;;20.50;19.40;;;;;;;8.74;78.39;100494.56;4986700;28;20088;-77
2023/01/14 10:52:19;;;;;;;22.15;20.98;;;;;;;8.75;76.66;100504.22;4983450;28;20042;-79
2023/01/14 10:54:58;;;;;;;17.88;16.88;;;;;;;8.82;76.78;100483.16;4987087;28;20058;-78
2023/01/14 10:57:25;;;;;;;17.67;16.75;;;;;;;8.81;76.26;100476.16;4985841;28;20051;-79
2023/01/14 10:59:53;;;;;;;18.55;17.60;;;;;;;8.84;76.23;100476.16;4990429;28;20081;-78
2023/01/14 11:02:43;;;;;;;25.85;24.55;;;;;;;8.87;75.13;100470.88;4989194;28;20382;-79
2023/01/14 11:05:27;;;;;;;35.40;33.65;;;;;;;8.89;74.72;100453.34;4985622;28;20085;-78
2023/01/14 11:07:55;;;;;;;12.82;12.02;;;;;;;8.94;75.30;100447.19;4985715;28;20081;-78
2023/01/14 11:10:27;;;;;;;13.98;13.18;;;;;;;8.98;74.60;100448.06;4988060;28;20034;-78
2023/01/14 11:12:53;;;;;;;11.85;11.20;;;;;;;9.09;74.80;100451.56;4986582;28;20033;-78
2023/01/14 11:15:39;;;;;;;15.23;14.30;;;;;;;9.04;72.09;100441.91;4984671;28;20042;-79
2023/01/14 11:18:15;;;;;;;11.98;11.27;;;;;;;9.03;72.33;100443.66;4985309;28;20069;-78
2023/01/14 11:20:40;;;;;;;8.98;8.45;;;;;;;9.05;72.66;100441.91;4984698;28;20034;-78
2023/01/14 11:23:20;;;;;;;9.13;8.52;;;;;;;9.18;72.67;100448.03;4988413;28;20516;-78
2023/01/14 11:25:49;;;;;;;11.68;11.02;;;;;;;9.20;72.00;100441.03;4983026;28;20041;-78
2023/01/14 11:28:15;;;;;;;12.20;11.50;;;;;;;9.14;72.09;100428.75;4985880;28;20053;-78
2023/01/14 11:30:43;;;;;;;9.00;8.40;;;;;;;9.17;72.24;100431.38;4986755;28;20035;-79
2023/01/14 11:33:18;;;;;;;17.75;16.75;;;;;;;9.22;71.17;100415.53;4989379;28;20502;-78
2023/01/14 11:35:49;;;;;;;14.65;13.88;;;;;;;9.13;70.95;100408.53;4986678;28;20050;-78
2023/01/14 11:38:16;;;;;;;10.13;9.52;;;;;;;9.18;70.84;100414.69;4984825;28;20062;-79
2023/01/14 11:43:25;;;;;;;7.60;7.10;;;;;;;9.27;72.50;100397.09;4987132;28;20493;-78
2023/01/14 11:46:15;;;;;;;10.00;9.40;;;;;;;9.32;72.64;100390.06;4981964;28;20066;-77
2023/01/14 11:48:41;;;;;;;12.27;11.57;;;;;;;9.41;72.22;100390.03;4986366;28;20045;-78
2023/01/14 11:51:21;;;;;;;43.58;41.40;;;;;;;9.24;71.50;100376.03;4987258;28;20694;-77
2023/01/14 11:53:48;;;;;;;28.48;26.98;;;;;;;9.34;72.30;100372.50;4986536;28;20034;-79
2023/01/14 11:56:40;;;;;;;14.30;13.50;;;;;;;9.33;71.74;100370.75;4985283;28;20047;-78
2023/01/14 11:59:28;;;;;;;3.97;3.10;;;;;;;9.43;72.30;100370.72;4979464;28;20047;-78
2023/01/14 12:02:01;;;;;;;122.43;112.88;;;;;;;9.46;71.60;100356.66;4989549;28;20066;-78
2023/01/14 12:04:38;;;;;;;137.52;127.95;;;;;;;9.41;72.05;100356.66;4987900;28;20038;-78
2023/01/14 12:07:10;;;;;;;31.20;28.02;;;;;;;9.33;72.31;100345.28;4984490;28;20400;-78
2023/01/14 12:09:51;;;;;;;1999.90;999.90;;;;;;;9.39;72.71;100341.75;4987634;28;20464;-79
2023/01/14 12:16:48;;;;;;;828.20;374.90;;;;;;;9.35;73.04;100334.72;4983944;28;20134;-78